createdAt,value
2022-10-05T00:00:23.289Z,14.82
2022-10-05T00:03:27.441Z,14.02
2022-10-05T00:06:30.312Z,13.67
2022-10-05T00:09:33.824Z,12.68
2022-10-05T00:12:35.733Z,13.32
2022-10-05T00:15:37.682Z,14.57
2022-10-05T00:18:39.759Z,13.10
2022-10-05T00:21:41.685Z,13.57
2022-10-05T00:24:44.375Z,13.20
2022-10-05T00:27:52.106Z,13.90
2022-10-05T00:30:55.549Z,13.13
2022-10-05T00:33:57.600Z,13.65
2022-10-05T00:36:59.593Z,14.27
2022-10-05T00:40:02.140Z,13.57
2022-10-05T00:43:18.663Z,13.90
2022-10-05T00:46:20.583Z,13.13
2022-10-05T00:49:31.355Z,12.82
2022-10-05T00:52:51.710Z,13.52
2022-10-05T00:55:57.698Z,12.70
2022-10-05T00:59:18.522Z,13.43
2022-10-05T01:02:23.284Z,13.48
2022-10-05T01:05:37.396Z,13.23
2022-10-05T01:08:57.447Z,12.03
2022-10-05T01:12:25.764Z,14.15
2022-10-05T01:15:45.474Z,14.63
2022-10-05T01:18:53.647Z,13.67
2022-10-05T01:21:59.248Z,12.68
2022-10-05T01:25:01.255Z,13.25
2022-10-05T01:28:06.026Z,17.27
2022-10-05T01:31:16.970Z,15.63
2022-10-05T01:34:37.557Z,13.45
2022-10-05T01:37:39.908Z,14.57
2022-10-05T01:40:44.565Z,13.97
2022-10-05T01:43:53.081Z,14.88
2022-10-05T01:47:00.503Z,12.00
2022-10-05T01:50:04.637Z,13.27
2022-10-05T01:53:26.376Z,12.13
2022-10-05T01:56:55.029Z,13.68
2022-10-05T01:59:57.636Z,13.38
2022-10-05T02:03:02.584Z,12.30
2022-10-05T02:06:07.744Z,13.40
2022-10-05T02:09:19.377Z,12.68
2022-10-05T02:12:23.658Z,13.67
2022-10-05T02:15:46.012Z,14.90
2022-10-05T02:18:56.811Z,12.48
2022-10-05T02:22:02.269Z,13.00
2022-10-05T02:25:08.536Z,14.25
2022-10-05T02:28:22.789Z,14.07
2022-10-05T02:31:45.979Z,15.80
2022-10-05T02:34:48.168Z,13.52
2022-10-05T02:38:19.330Z,14.30
2022-10-05T02:41:29.620Z,14.45
2022-10-05T02:44:53.398Z,13.77
2022-10-05T02:47:55.341Z,13.90
2022-10-05T02:51:00.644Z,14.20
2022-10-05T02:54:05.645Z,13.60
2022-10-05T02:57:24.265Z,13.30
2022-10-05T03:00:30.761Z,15.35
2022-10-05T03:03:32.810Z,15.10
2022-10-05T03:07:01.226Z,13.65
2022-10-05T03:10:08.323Z,14.27
2022-10-05T03:13:22.839Z,15.23
2022-10-05T03:16:34.367Z,15.13
2022-10-05T03:19:45.820Z,14.30
2022-10-05T03:22:48.649Z,13.15
2022-10-05T03:26:06.179Z,16.80
2022-10-05T03:29:08.359Z,13.27
2022-10-05T03:32:19.516Z,14.15
2022-10-05T03:35:41.793Z,14.75
2022-10-05T03:38:46.571Z,13.20
2022-10-05T03:41:54.915Z,14.15
2022-10-05T03:45:02.954Z,13.20
2022-10-05T03:48:15.611Z,13.03
2022-10-05T03:51:37.864Z,13.95
2022-10-05T03:54:48.541Z,12.73
2022-10-05T03:57:52.534Z,14.10
2022-10-05T04:00:58.231Z,13.88
2022-10-05T04:04:01.610Z,14.15
2022-10-05T04:07:05.226Z,13.43
2022-10-05T04:10:12.227Z,13.48
2022-10-05T04:13:24.309Z,14.27
2022-10-05T04:16:34.375Z,15.13
2022-10-05T04:19:36.325Z,14.47
2022-10-05T04:22:40.600Z,16.02
2022-10-05T04:25:45.493Z,13.23
2022-10-05T04:29:14.404Z,15.77
2022-10-05T04:32:49.231Z,13.68
2022-10-05T04:36:13.727Z,11.90
2022-10-05T04:39:36.007Z,14.32
2022-10-05T04:42:42.956Z,17.30
2022-10-05T04:45:48.462Z,17.85
2022-10-05T04:49:09.353Z,14.40
2022-10-05T04:52:17.491Z,15.67
2022-10-05T04:55:31.656Z,15.55
2022-10-05T04:58:43.049Z,15.20
2022-10-05T05:02:11.718Z,15.47
2022-10-05T05:05:17.316Z,14.32
2022-10-05T05:08:29.990Z,15.23
2022-10-05T05:11:44.478Z,14.68
2022-10-05T05:15:01.762Z,13.93
2022-10-05T05:18:26.067Z,15.18
2022-10-05T05:21:28.757Z,14.43
2022-10-05T05:24:33.637Z,15.37
2022-10-05T05:27:46.060Z,16.25
2022-10-05T05:30:53.761Z,14.60
2022-10-05T05:34:02.048Z,15.60
2022-10-05T05:37:23.218Z,15.98
2022-10-05T05:40:28.163Z,16.38
2022-10-05T05:43:36.814Z,18.58
2022-10-05T05:47:02.322Z,15.70
2022-10-05T05:50:13.229Z,17.02
2022-10-05T05:53:15.451Z,17.45
2022-10-05T05:56:20.779Z,17.03
2022-10-05T05:59:55.663Z,17.35
2022-10-05T06:03:04.057Z,21.92
2022-10-05T06:06:10.020Z,24.93
2022-10-05T06:09:27.112Z,24.08
2022-10-05T06:12:47.378Z,19.90
2022-10-05T06:15:56.108Z,19.70
2022-10-05T06:19:02.686Z,17.77
2022-10-05T06:22:14.981Z,17.30
2022-10-05T06:25:20.636Z,14.15
2022-10-05T06:28:24.760Z,13.30
2022-10-05T06:31:39.379Z,14.88
2022-10-05T06:34:47.753Z,14.30
2022-10-05T06:38:02.042Z,13.50
2022-10-05T06:41:04.415Z,11.07
2022-10-05T06:44:06.574Z,13.25
2022-10-05T06:47:29.015Z,11.18
2022-10-05T06:50:48.682Z,11.07
2022-10-05T06:54:35.364Z,12.02
2022-10-05T06:57:46.753Z,10.80
2022-10-05T07:01:16.105Z,11.43
2022-10-05T07:04:37.173Z,12.68
2022-10-05T07:07:51.867Z,12.93
2022-10-05T07:11:22.960Z,11.45
2022-10-05T07:14:25.218Z,12.32
2022-10-05T07:17:39.270Z,12.00
2022-10-05T07:20:48.918Z,12.27
2022-10-05T07:23:53.179Z,11.13
2022-10-05T07:27:14.144Z,11.65
2022-10-05T07:30:16.420Z,11.45
2022-10-05T07:33:25.574Z,9.73
2022-10-05T07:36:55.224Z,10.13
2022-10-05T07:40:01.580Z,11.30
2022-10-05T07:43:16.753Z,11.50
2022-10-05T07:46:42.623Z,10.70
2022-10-05T07:50:04.139Z,9.63
2022-10-05T07:53:15.224Z,9.40
2022-10-05T07:56:23.703Z,9.80
2022-10-05T07:59:28.733Z,8.38
2022-10-05T08:02:44.588Z,7.80
2022-10-05T08:05:47.313Z,8.57
2022-10-05T08:08:54.502Z,8.30
2022-10-05T08:12:07.490Z,7.60
2022-10-05T08:15:14.964Z,7.97
2022-10-05T08:18:20.800Z,8.35
2022-10-05T08:21:33.071Z,7.35
2022-10-05T08:24:37.979Z,7.97
2022-10-05T08:27:43.686Z,7.93
2022-10-05T08:30:54.506Z,8.18
2022-10-05T08:34:05.539Z,7.75
2022-10-05T08:37:17.966Z,6.57
2022-10-05T08:40:29.609Z,9.00
2022-10-05T08:43:49.855Z,8.00
2022-10-05T08:47:02.535Z,7.20
2022-10-05T08:50:23.150Z,7.70
2022-10-05T08:53:37.212Z,7.78
2022-10-05T08:56:43.360Z,7.37
2022-10-05T09:00:03.925Z,9.30
2022-10-05T09:03:17.940Z,7.35
2022-10-05T09:06:35.435Z,6.63
2022-10-05T09:10:00.800Z,6.60
2022-10-05T09:13:29.833Z,6.50
2022-10-05T09:16:41.143Z,6.27
2022-10-05T09:19:55.484Z,5.70
2022-10-05T09:23:04.354Z,6.47
2022-10-05T09:26:09.351Z,5.70
2022-10-05T09:29:30.055Z,6.10
2022-10-05T09:32:34.887Z,7.50
2022-10-05T09:35:37.036Z,7.82
2022-10-05T09:38:50.376Z,6.60
2022-10-05T09:42:07.802Z,6.75
2022-10-05T09:45:41.580Z,7.20
2022-10-05T09:48:43.514Z,5.70
2022-10-05T09:52:00.641Z,5.82
2022-10-05T09:55:10.761Z,5.80
2022-10-05T09:58:15.180Z,6.75
2022-10-05T10:01:35.422Z,5.30
2022-10-05T10:04:37.497Z,4.97
2022-10-05T10:07:52.123Z,4.72
2022-10-05T10:11:01.751Z,4.95
2022-10-05T10:14:13.137Z,4.80
2022-10-05T10:17:18.021Z,4.00
2022-10-05T10:20:31.136Z,3.30
2022-10-05T10:23:51.755Z,4.20
2022-10-05T10:27:13.347Z,3.70
2022-10-05T10:30:27.778Z,3.42
2022-10-05T10:33:39.475Z,4.30
2022-10-05T10:37:00.587Z,4.07
2022-10-05T10:40:26.122Z,3.78
2022-10-05T10:43:47.227Z,4.65
2022-10-05T10:47:08.008Z,5.28
2022-10-05T10:50:25.807Z,4.00
2022-10-05T10:53:46.824Z,4.80
2022-10-05T10:56:54.143Z,4.60
2022-10-05T11:00:08.236Z,4.32
2022-10-05T11:03:13.178Z,4.82
2022-10-05T11:06:17.120Z,4.23
2022-10-05T11:09:22.212Z,4.53
2022-10-05T11:12:44.754Z,3.80
2022-10-05T11:15:49.603Z,4.43
2022-10-05T11:19:02.339Z,4.07
2022-10-05T11:22:10.367Z,4.20
2022-10-05T11:25:18.426Z,3.80
2022-10-05T11:28:36.234Z,3.85
2022-10-05T11:31:41.511Z,3.50
2022-10-05T11:34:56.822Z,4.57
2022-10-05T11:38:11.115Z,3.10
2022-10-05T11:41:22.580Z,3.50
2022-10-05T11:44:43.083Z,2.80
2022-10-05T11:48:10.727Z,3.22
2022-10-05T11:51:28.928Z,2.97
2022-10-05T11:55:05.915Z,3.07
2022-10-05T11:58:01.706Z,2.90
2022-10-05T12:01:18.216Z,2.97
2022-10-05T12:04:29.022Z,3.08
2022-10-05T12:07:51.293Z,2.97
2022-10-05T12:11:02.452Z,3.10
2022-10-05T12:14:21.536Z,3.20
2022-10-05T12:17:31.029Z,3.15
2022-10-05T12:20:33.111Z,3.17
2022-10-05T12:23:37.686Z,2.42
2022-10-05T12:27:00.103Z,4.23
2022-10-05T12:30:02.322Z,2.90
2022-10-05T12:33:06.987Z,2.95
2022-10-05T12:36:14.424Z,2.70
2022-10-05T12:39:18.982Z,2.63
2022-10-05T12:42:23.743Z,2.77
2022-10-05T12:45:31.529Z,3.30
2022-10-05T12:48:36.570Z,2.97
2022-10-05T12:51:56.526Z,3.30
2022-10-05T12:54:58.476Z,3.33
2022-10-05T12:58:09.311Z,3.07
2022-10-05T13:01:23.624Z,2.47
2022-10-05T13:04:28.977Z,2.90
2022-10-05T13:07:34.191Z,2.15
2022-10-05T13:10:39.487Z,4.43
2022-10-05T13:13:41.435Z,2.83
2022-10-05T13:16:55.393Z,3.20
2022-10-05T13:19:58.596Z,2.58
2022-10-05T13:23:09.408Z,2.47
2022-10-05T13:26:14.345Z,2.72
2022-10-05T13:29:19.294Z,2.63
2022-10-05T13:32:21.232Z,2.60
2022-10-05T13:35:41.884Z,2.85
2022-10-05T13:38:52.768Z,2.22
2022-10-05T13:41:55.172Z,2.75
2022-10-05T13:45:00.412Z,2.57
2022-10-05T13:48:11.354Z,2.83
2022-10-05T13:51:34.914Z,2.08
2022-10-05T13:54:42.774Z,2.50
2022-10-05T13:57:51.636Z,2.42
2022-10-05T14:00:55.110Z,2.80
2022-10-05T14:04:24.614Z,2.70
2022-10-05T14:07:34.185Z,2.78
2022-10-05T14:10:36.609Z,2.47
2022-10-05T14:13:46.446Z,2.88
2022-10-05T14:16:51.034Z,3.40
2022-10-05T14:19:56.648Z,2.67
2022-10-05T14:23:02.899Z,3.22
2022-10-05T14:26:17.243Z,2.78
2022-10-05T14:29:23.556Z,2.67
2022-10-05T14:32:27.156Z,3.00
2022-10-05T14:35:51.492Z,3.47
2022-10-05T14:38:53.440Z,2.53
2022-10-05T14:41:55.659Z,2.97
2022-10-05T14:45:11.449Z,2.70
2022-10-05T14:48:13.417Z,2.90
2022-10-05T14:51:28.406Z,2.50
2022-10-05T14:54:41.213Z,2.35
2022-10-05T14:58:03.412Z,2.72
2022-10-05T15:01:14.717Z,3.35
2022-10-05T15:04:24.825Z,3.10
2022-10-05T15:07:26.716Z,3.40
2022-10-05T15:10:42.433Z,2.70
2022-10-05T15:13:45.266Z,2.88
2022-10-05T15:16:50.097Z,3.38
2022-10-05T15:20:01.812Z,4.43
2022-10-05T15:23:23.752Z,5.00
2022-10-05T15:26:46.256Z,4.88
2022-10-05T15:29:51.999Z,9.48
2022-10-05T15:33:15.024Z,4.93
2022-10-05T15:36:19.832Z,4.30
2022-10-05T15:39:27.053Z,10.03
2022-10-05T15:42:39.441Z,8.68
2022-10-05T15:45:54.046Z,9.00
2022-10-05T15:49:08.552Z,8.05
2022-10-05T15:52:25.547Z,18.10
2022-10-05T15:55:35.395Z,20.67
2022-10-05T15:58:40.228Z,16.35
2022-10-05T16:01:49.014Z,11.75
2022-10-05T16:05:04.468Z,7.50
2022-10-05T16:08:31.008Z,6.80
2022-10-05T16:11:56.494Z,7.13
2022-10-05T16:15:01.493Z,5.97
2022-10-05T16:18:24.136Z,7.85
2022-10-05T16:21:45.957Z,7.22
2022-10-05T16:24:53.687Z,7.47
2022-10-05T16:28:06.273Z,18.30
2022-10-05T16:31:18.708Z,18.88
2022-10-05T16:34:39.543Z,18.80
2022-10-05T16:37:41.515Z,26.42
2022-10-05T16:41:01.066Z,42.80
2022-10-05T16:44:03.792Z,41.20
2022-10-05T16:47:28.233Z,46.17
2022-10-05T16:50:37.036Z,45.08
2022-10-05T16:53:44.347Z,37.00
2022-10-05T16:56:54.888Z,34.30
2022-10-05T17:00:03.701Z,29.47
2022-10-05T17:03:17.704Z,35.85
2022-10-05T17:06:38.208Z,37.72
2022-10-05T17:09:40.218Z,36.15
2022-10-05T17:12:48.035Z,34.27
2022-10-05T17:15:55.741Z,37.13
2022-10-05T17:19:12.831Z,39.28
2022-10-05T17:22:14.745Z,42.10
2022-10-05T17:25:19.350Z,49.28
2022-10-05T17:28:39.082Z,64.23
2022-10-05T17:32:00.193Z,65.93
2022-10-05T17:35:15.930Z,83.13
2022-10-05T17:38:24.002Z,59.80
2022-10-05T17:41:29.514Z,46.92
2022-10-05T17:44:31.463Z,43.23
2022-10-05T17:47:51.940Z,43.27
2022-10-05T17:51:12.329Z,36.08
2022-10-05T17:54:37.096Z,34.72
2022-10-05T17:57:39.662Z,35.28
2022-10-05T18:01:01.539Z,32.50
2022-10-05T18:04:09.275Z,30.53
2022-10-05T18:07:23.987Z,30.73
2022-10-05T18:10:29.775Z,28.40
2022-10-05T18:13:35.572Z,28.65
2022-10-05T18:16:56.839Z,31.33
2022-10-05T18:20:13.264Z,34.20
2022-10-05T18:23:36.429Z,48.83
2022-10-05T18:26:52.267Z,25.77
2022-10-05T18:30:06.334Z,21.55
2022-10-05T18:33:08.250Z,21.40
2022-10-05T18:36:17.097Z,20.67
2022-10-05T18:39:31.011Z,20.63
2022-10-05T18:42:48.746Z,24.02
2022-10-05T18:50:29.241Z,16.20
2022-10-05T18:53:46.523Z,16.02
2022-10-05T18:56:52.047Z,15.40
2022-10-05T19:00:12.535Z,14.23
2022-10-05T19:03:14.790Z,13.43
2022-10-05T19:06:24.640Z,12.52
2022-10-05T19:09:26.571Z,13.80
2022-10-05T19:12:29.364Z,11.18
2022-10-05T19:15:31.312Z,10.85
2022-10-05T19:18:41.456Z,11.20
2022-10-05T19:21:43.447Z,10.43
2022-10-05T19:25:08.284Z,11.63
2022-10-05T19:28:17.526Z,10.50
2022-10-05T19:31:34.478Z,10.53
2022-10-05T19:34:42.391Z,10.83
2022-10-05T19:37:53.070Z,11.00
2022-10-05T19:41:00.776Z,12.98
2022-10-05T19:44:38.520Z,11.63
2022-10-05T19:47:46.282Z,11.00
2022-10-05T19:50:58.206Z,9.35
2022-10-05T19:54:14.732Z,10.43
2022-10-05T19:57:17.948Z,10.85
2022-10-05T20:00:21.752Z,10.10
2022-10-05T20:03:29.247Z,10.43
2022-10-05T20:06:31.186Z,9.75
2022-10-05T20:09:51.983Z,13.30
2022-10-05T20:12:55.920Z,10.97
2022-10-05T20:16:26.505Z,9.80
2022-10-05T20:19:47.033Z,12.25
2022-10-05T20:22:49.030Z,10.68
2022-10-05T20:26:10.026Z,10.73
2022-10-05T20:29:12.003Z,8.27
2022-10-05T20:32:15.246Z,8.45
2022-10-05T20:35:18.182Z,9.48
2022-10-05T20:38:20.415Z,13.40
2022-10-05T20:41:22.346Z,10.23
2022-10-05T20:44:24.300Z,7.53
2022-10-05T20:47:26.525Z,13.88
2022-10-05T20:50:28.482Z,9.23
2022-10-05T20:53:30.403Z,14.65
2022-10-05T20:56:32.685Z,12.80
2022-10-05T20:59:35.046Z,11.20
2022-10-05T21:02:38.094Z,23.30
2022-10-05T21:05:40.023Z,27.05
2022-10-05T21:08:41.951Z,13.60
2022-10-05T21:11:44.651Z,11.97
2022-10-05T21:14:47.468Z,13.20
2022-10-05T21:17:50.798Z,25.85
2022-10-05T21:20:52.755Z,12.00
2022-10-05T21:23:54.916Z,12.05
2022-10-05T21:26:57.613Z,11.40
2022-10-05T21:29:59.642Z,10.48
2022-10-05T21:33:01.638Z,16.15
2022-10-05T21:36:03.851Z,13.68
2022-10-05T21:39:05.851Z,12.00
2022-10-05T21:42:07.802Z,10.75
2022-10-05T21:45:10.153Z,10.90
2022-10-05T21:48:13.445Z,9.60
2022-10-05T21:51:16.944Z,10.50
2022-10-05T21:54:20.453Z,11.43
2022-10-05T21:57:22.456Z,10.63
2022-10-05T22:00:24.384Z,11.73
2022-10-05T22:03:26.364Z,10.40
2022-10-05T22:06:28.419Z,9.13
2022-10-05T22:09:30.344Z,8.90
2022-10-05T22:12:32.696Z,9.00
2022-10-05T22:15:34.624Z,10.47
2022-10-05T22:18:36.567Z,11.80
2022-10-05T22:21:41.680Z,11.48
2022-10-05T22:24:43.796Z,10.65
2022-10-05T22:27:45.735Z,9.00
2022-10-05T22:30:47.745Z,8.27
2022-10-05T22:33:49.828Z,8.73
2022-10-05T22:36:51.859Z,8.83
2022-10-05T22:39:55.257Z,8.50
2022-10-05T22:42:57.244Z,9.63
2022-10-05T22:45:59.249Z,8.93
2022-10-05T22:49:01.372Z,9.80
2022-10-05T22:52:03.708Z,9.38
2022-10-05T22:55:05.856Z,11.10
2022-10-05T22:58:07.834Z,9.98
2022-10-05T23:01:13.945Z,10.20
2022-10-05T23:04:15.986Z,8.82
2022-10-05T23:07:18.105Z,8.77
2022-10-05T23:10:20.092Z,8.27
2022-10-05T23:13:22.542Z,9.73
2022-10-05T23:16:27.661Z,9.68
2022-10-05T23:19:29.773Z,9.75
2022-10-05T23:22:34.868Z,9.40
2022-10-05T23:25:36.917Z,10.13
2022-10-05T23:28:40.414Z,9.47
2022-10-05T23:31:42.629Z,10.40
2022-10-05T23:34:44.545Z,10.32
2022-10-05T23:37:46.560Z,9.97
2022-10-05T23:40:48.548Z,11.32
2022-10-05T23:43:50.551Z,10.55
2022-10-05T23:46:52.540Z,11.02
2022-10-05T23:49:55.455Z,11.60
2022-10-05T23:52:57.371Z,12.32
2022-10-05T23:55:59.365Z,10.85
2022-10-05T23:59:01.355Z,11.10
